| time (UTC) | temp C | wind direction | speed KPH | gust KPH | rain 1hr cm | rain 24hr cm | rain mn cm | humidity % | barometer mb |
| 20260506190533 | 23 | 137 | 3.2 | 6.4 | 0.00 | 0.00 | 0.00 | 39 | 1014.7 |
| 20260506185533 | 23 | 155 | 3.2 | 6.4 | 0.00 | 0.00 | 0.00 | 38 | 1014.7 |
| 20260506184553 | 23 | 153 | 3.2 | 8.0 | 0.00 | 0.00 | 0.00 | 38 | 1014.7 |
| 20260506183533 | 23 | 162 | 3.2 | 6.4 | 0.00 | 0.00 | 0.00 | 38 | 1014.8 |
| 20260506182533 | 23 | 147 | 4.8 | 6.4 | 0.00 | 0.00 | 0.00 | 38 | 1015.9 |
| 20260506181533 | 23 | 115 | 4.8 | 8.0 | 0.00 | 0.00 | 0.00 | 38 | 1015.8 |
| 20260506180532 | 22 | 136 | 4.8 | 9.7 | 0.00 | 0.00 | 0.00 | 39 | 1015.9 |
| 20260506175532 | 22 | 137 | 4.8 | 8.0 | 0.00 | 0.00 | 0.00 | 40 | 1015.9 |
| 20260506174533 | 22 | 144 | 4.8 | 6.4 | 0.00 | 0.00 | 0.00 | 39 | 1016.0 |
| 20260506173532 | 21 | 140 | 4.8 | 6.4 | 0.00 | 0.00 | 0.00 | 41 | 1015.9 |
| 20260506172533 | 22 | 137 | 4.8 | 8.0 | 0.00 | 0.00 | 0.00 | 40 | 1015.9 |
| 20260506171532 | 23 | 155 | 4.8 | 6.4 | 0.00 | 0.00 | 0.00 | 39 | 1016.0 |
| 20260506170551 | 22 | 139 | 3.2 | 6.4 | 0.00 | 0.00 | 0.00 | 42 | 1015.9 |
| 20260506165532 | 21 | 140 | 4.8 | 6.4 | 0.00 | 0.00 | 0.00 | 42 | 1015.7 |
| 20260506164533 | 20 | 117 | 4.8 | 6.4 | 0.00 | 0.00 | 0.00 | 43 | 1015.7 |
| 20260506163532 | 21 | 152 | 3.2 | 4.8 | 0.00 | 0.00 | 0.00 | 44 | 1015.6 |
| 20260506162532 | 20 | 157 | 3.2 | 6.4 | 0.00 | 0.00 | 0.00 | 44 | 1016.7 |
| 20260506161532 | 19 | 138 | 4.8 | 6.4 | 0.00 | 0.00 | 0.00 | 45 | 1016.6 |
| 20260506160532 | 19 | 132 | 4.8 | 4.8 | 0.00 | 0.00 | 0.00 | 45 | 1016.6 |
| 20260506155552 | 20 | 153 | 4.8 | 6.4 | 0.00 | 0.00 | 0.00 | 44 | 1016.8 |
| 20260506154532 | 19 | 136 | 3.2 | 4.8 | 0.00 | 0.00 | 0.00 | 45 | 1016.7 |
| 20260506153532 | 18 | 127 | 3.2 | 8.0 | 0.00 | 0.00 | 0.00 | 46 | 1016.7 |
| 20260506152532 | 18 | 141 | 4.8 | 6.4 | 0.00 | 0.00 | 0.00 | 47 | 1016.8 |
| 20260506151532 | 17 | 133 | 4.8 | 6.4 | 0.00 | 0.00 | 0.00 | 48 | 1016.7 |
| 20260506150532 | 16 | 169 | 1.6 | 4.8 | 0.00 | 0.00 | 0.00 | 51 | 1016.6 |
| 20260506145552 | 15 | 343 | 1.6 | 4.8 | 0.00 | 0.00 | 0.00 | 52 | 1016.5 |
| 20260506144552 | 15 | 159 | 0.0 | 3.2 | 0.00 | 0.00 | 0.00 | 53 | 1016.8 |
| 20260506143552 | 14 | 169 | 1.6 | 4.8 | 0.00 | 0.00 | 0.00 | 56 | 1016.7 |
| 20260506142532 | 14 | 149 | 3.2 | 4.8 | 0.00 | 0.00 | 0.00 | 59 | 1016.7 |
| 20260506141532 | 13 | 163 | 1.6 | 4.8 | 0.00 | 0.00 | 0.00 | 61 | 1016.7 |
| 20260506140612 | 12 | 0.0 | 0.0 | 0.00 | 0.00 | 0.00 | 65 | 1016.6 | |
| 20260506135532 | 12 | 158 | 1.6 | 3.2 | 0.00 | 0.00 | 0.00 | 71 | 1016.6 |
| 20260506134532 | 11 | 0.0 | 0.0 | 0.00 | 0.00 | 0.00 | 75 | 1016.6 | |
| 20260506133532 | 11 | 0.0 | 0.0 | 0.00 | 0.00 | 0.00 | 76 | 1016.6 | |
| 20260506132532 | 11 | 0.0 | 0.0 | 0.00 | 0.00 | 0.00 | 74 | 1016.6 | |
| 20260506131612 | 11 | 0.0 | 0.0 | 0.00 | 0.00 | 0.00 | 73 | 1016.6 | |
| 20260506130532 | 11 | 180 | 0.0 | 3.2 | 0.00 | 0.00 | 0.00 | 74 | 1016.7 |
| 20260506125552 | 11 | 251 | 1.6 | 4.8 | 0.00 | 0.00 | 0.00 | 74 | 1016.7 |
| 20260506124532 | 11 | 0.0 | 0.0 | 0.00 | 0.00 | 0.00 | 73 | 1016.7 | |
| 20260506123532 | 11 | 0.0 | 0.0 | 0.00 | 0.00 | 0.00 | 72 | 1016.7 | |
| 20260506122532 | 11 | 0.0 | 0.0 | 0.00 | 0.00 | 0.00 | 72 | 1016.7 | |
| 20260506121532 | 11 | 0.0 | 0.0 | 0.00 | 0.00 | 0.00 | 71 | 1016.7 | |
| 20260506120532 | 11 | 0.0 | 0.0 | 0.00 | 0.00 | 0.00 | 70 | 1016.7 | |
| 20260506115532 | 11 | 0.0 | 0.0 | 0.00 | 0.00 | 0.00 | 70 | 1015.6 | |
| 20260506114532 | 11 | 205 | 1.6 | 3.2 | 0.00 | 0.00 | 0.00 | 70 | 1015.6 |
| 20260506113532 | 12 | 0.0 | 0.0 | 0.00 | 0.00 | 0.00 | 69 | 1015.7 | |
| 20260506112532 | 12 | 0.0 | 0.0 | 0.00 | 0.00 | 0.00 | 69 | 1015.7 | |
| 20260506111532 | 12 | 0.0 | 0.0 | 0.00 | 0.00 | 0.00 | 68 | 1015.7 | |
| 20260506110532 | 12 | 246 | 3.2 | 3.2 | 0.00 | 0.00 | 0.00 | 69 | 1015.7 |
| 20260506105532 | 12 | 0.0 | 0.0 | 0.00 | 0.00 | 0.00 | 69 | 1015.7 | |
| 20260506104532 | 12 | 0.0 | 0.0 | 0.00 | 0.00 | 0.00 | 67 | 1014.6 | |
| 20260506103533 | 12 | 0.0 | 0.0 | 0.00 | 0.00 | 0.00 | 66 | ||
| 20260506061532 | 17 | 272 | 6.4 | 9.7 | 0.00 | 0.00 | 0.00 | 40 | 1014.4 |
| 20260506060531 | 17 | 265 | 4.8 | 9.7 | 0.00 | 0.00 | 0.00 | 39 | 1014.3 |
| 20260506050531 | 18 | 279 | 6.4 | 8.0 | 0.00 | 0.00 | 0.00 | 39 | 1014.2 |
| 20260506044532 | 17 | 260 | 4.8 | 6.4 | 0.00 | 0.00 | 0.00 | 41 | 1014.0 |
| 20260506043532 | 17 | 262 | 3.2 | 8.0 | 0.00 | 0.00 | 0.00 | 42 | 1013.9 |
| 20260506042611 | 18 | 259 | 1.6 | 3.2 | 0.00 | 0.00 | 0.00 | 42 | 1013.8 |
| 20260506041532 | 18 | 276 | 4.8 | 8.0 | 0.00 | 0.00 | 0.00 | 39 | 1013.8 |
| 20260506040531 | 17 | 277 | 4.8 | 6.4 | 0.00 | 0.00 | 0.00 | 43 | 1012.7 |
| 20260506035532 | 17 | 238 | 3.2 | 4.8 | 0.00 | 0.00 | 0.00 | 43 | 1012.6 |
| 20260506034531 | 18 | 262 | 3.2 | 4.8 | 0.00 | 0.00 | 0.00 | 43 | 1012.4 |
| 20260506033533 | 18 | 267 | 3.2 | 4.8 | 0.00 | 0.00 | 0.00 | 43 | 1012.4 |
| 20260506032532 | 18 | 256 | 3.2 | 4.8 | 0.00 | 0.00 | 0.00 | 42 | 1012.4 |
| 20260506031532 | 19 | 238 | 3.2 | 3.2 | 0.00 | 0.00 | 0.00 | 40 | 1012.3 |
| 20260506030532 | 20 | 270 | 3.2 | 4.8 | 0.00 | 0.00 | 0.00 | 39 | 1012.2 |
| 20260506025532 | 20 | 236 | 3.2 | 3.2 | 0.00 | 0.00 | 0.00 | 38 | 1012.4 |
| 20260506024531 | 21 | 246 | 3.2 | 4.8 | 0.00 | 0.00 | 0.00 | 37 | 1012.3 |
| 20260506023532 | 22 | 0.0 | 0.0 | 0.00 | 0.00 | 0.00 | 35 | 1012.3 | |
| 20260506022531 | 22 | 0.0 | 0.0 | 0.00 | 0.00 | 0.00 | 32 | 1012.3 | |
| 20260506021532 | 23 | 0.0 | 0.0 | 0.00 | 0.00 | 0.00 | 29 | 1012.4 | |
| 20260506020531 | 23 | 0.0 | 0.0 | 0.00 | 0.00 | 0.00 | 28 | 1012.3 | |
| 20260506015533 | 24 | 0.0 | 0.0 | 0.00 | 0.00 | 0.00 | 27 | 1012.3 | |
| 20260506014531 | 25 | 0.0 | 0.0 | 0.00 | 0.00 | 0.00 | 26 | 1012.5 | |
| 20260506013553 | 25 | 147 | 3.2 | 8.0 | 0.00 | 0.00 | 0.00 | 24 | 1012.5 |
| 20260506012531 | 25 | 192 | 1.6 | 4.8 | 0.00 | 0.00 | 0.00 | 25 | 1012.5 |
| 20260506011532 | 25 | 139 | 3.2 | 6.4 | 0.00 | 0.00 | 0.00 | 24 | 1012.6 |
| 20260506010531 | 25 | 145 | 4.8 | 9.7 | 0.00 | 0.00 | 0.00 | 24 | 1013.5 |
| 20260506005532 | 26 | 203 | 1.6 | 4.8 | 0.00 | 0.00 | 0.00 | 24 | 1013.6 |
| 20260506004532 | 26 | 133 | 4.8 | 9.7 | 0.00 | 0.00 | 0.00 | 24 | 1013.6 |
| 20260506003553 | 26 | 263 | 3.2 | 6.4 | 0.00 | 0.00 | 0.00 | 24 | 1013.6 |
| 20260506002611 | 26 | 155 | 4.8 | 8.0 | 0.00 | 0.00 | 0.00 | 23 | 1013.7 |
| 20260506001552 | 27 | 137 | 6.4 | 9.7 | 0.00 | 0.00 | 0.00 | 22 | 1013.8 |
| 20260506000530 | 28 | 181 | 4.8 | 9.7 | 0.00 | 0.00 | 0.00 | 22 | 1013.9 |
| 20260505235533 | 27 | 151 | 4.8 | 9.7 | 0.00 | 0.00 | 0.00 | 23 | 1013.8 |
| 20260505234530 | 27 | 167 | 4.8 | 8.0 | 0.00 | 0.00 | 0.00 | 23 | 1013.8 |
| 20260505233533 | 27 | 124 | 6.4 | 8.0 | 0.00 | 0.00 | 0.00 | 23 | 1013.8 |
| 20260505232530 | 27 | 140 | 6.4 | 9.7 | 0.00 | 0.00 | 0.00 | 23 | 1013.8 |
| 20260505231533 | 27 | 147 | 4.8 | 8.0 | 0.00 | 0.00 | 0.00 | 23 | 1013.9 |
| 20260505230530 | 27 | 161 | 4.8 | 9.7 | 0.00 | 0.00 | 0.00 | 22 | 1015.0 |
| 20260505225530 | 27 | 158 | 4.8 | 8.0 | 0.00 | 0.00 | 0.00 | 23 | 1014.9 |
| 20260505224529 | 27 | 148 | 6.4 | 11.3 | 0.00 | 0.00 | 0.00 | 22 | 1015.0 |
| 20260505223529 | 27 | 141 | 6.4 | 9.7 | 0.00 | 0.00 | 0.00 | 23 | 1014.9 |
| 20260505222529 | 27 | 141 | 6.4 | 9.7 | 0.00 | 0.00 | 0.00 | 23 | 1014.9 |
| 20260505221529 | 27 | 138 | 6.4 | 9.7 | 0.00 | 0.00 | 0.00 | 23 | 1014.9 |
| 20260505220529 | 27 | 148 | 4.8 | 11.3 | 0.00 | 0.00 | 0.00 | 23 | 1015.0 |
| 20260505215530 | 27 | 146 | 8.0 | 9.7 | 0.00 | 0.00 | 0.00 | 23 | 1015.0 |
| 20260505214529 | 27 | 148 | 4.8 | 8.0 | 0.00 | 0.00 | 0.00 | 23 | 1015.1 |
| 20260505213530 | 27 | 171 | 6.4 | 14.5 | 0.00 | 0.00 | 0.00 | 23 | 1016.2 |
| 20260505212549 | 26 | 154 | 6.4 | 9.7 | 0.00 | 0.00 | 0.00 | 24 | 1016.2 |
| 20260505211529 | 26 | 149 | 8.0 | 11.3 | 0.00 | 0.00 | 0.00 | 23 | 1016.2 |
| 20260505210529 | 26 | 137 | 6.4 | 9.7 | 0.00 | 0.00 | 0.00 | 23 | 1016.0 |
| 20260505205529 | 26 | 139 | 6.4 | 9.7 | 0.00 | 0.00 | 0.00 | 24 | 1016.3 |
| 20260505204549 | 26 | 143 | 6.4 | 11.3 | 0.00 | 0.00 | 0.00 | 23 | 1016.3 |
| 20260505203529 | 26 | 133 | 6.4 | 11.3 | 0.00 | 0.00 | 0.00 | 23 | 1016.5 |
| 20260505202549 | 26 | 156 | 4.8 | 8.0 | 0.00 | 0.00 | 0.00 | 23 | 1016.5 |
| 20260505201549 | 26 | 208 | 4.8 | 8.0 | 0.00 | 0.00 | 0.00 | 23 | 1017.7 |
| 20260505200529 | 26 | 144 | 4.8 | 6.4 | 0.00 | 0.00 | 0.00 | 22 | 1017.6 |
| 20260505195549 | 26 | 169 | 4.8 | 8.0 | 0.00 | 0.00 | 0.00 | 23 | 1017.6 |
| 20260505194529 | 26 | 129 | 4.8 | 8.0 | 0.00 | 0.00 | 0.00 | 23 | 1017.8 |
| 20260505193549 | 24 | 161 | 4.8 | 8.0 | 0.00 | 0.00 | 0.00 | 26 | 1017.5 |
| 20260505192528 | 24 | 154 | 4.8 | 8.0 | 0.00 | 0.00 | 0.00 | 27 | 1017.6 |
| 20260505191528 | 24 | 163 | 4.8 | 12.9 | 0.00 | 0.00 | 0.00 | 28 | 1017.7 |